createdAt,value
2024-04-13T00:02:07.567Z,6.00
2024-04-13T00:04:53.517Z,5.78
2024-04-13T00:07:59.696Z,4.85
2024-04-13T00:11:06.129Z,6.40
2024-04-13T00:14:11.970Z,5.82
2024-04-13T00:17:17.759Z,7.47
2024-04-13T00:20:24.129Z,5.85
2024-04-13T00:23:29.799Z,6.88
2024-04-13T00:26:35.167Z,8.18
2024-04-13T00:29:41.209Z,11.57
2024-04-13T00:32:47.097Z,6.65
2024-04-13T00:35:52.968Z,8.38
2024-04-13T00:38:58.784Z,6.40
2024-04-13T00:42:04.801Z,10.38
2024-04-13T00:45:10.972Z,7.53
2024-04-13T00:48:16.983Z,10.48
2024-04-13T00:51:28.139Z,8.38
2024-04-13T00:54:36.136Z,15.85
2024-04-13T00:57:42.121Z,10.30
2024-04-13T01:00:48.232Z,7.80
2024-04-13T01:03:54.045Z,9.88
2024-04-13T01:07:00.345Z,6.15
2024-04-13T01:10:06.721Z,8.10
2024-04-13T01:13:12.728Z,5.95
2024-04-13T01:16:18.683Z,7.30
2024-04-13T01:19:24.644Z,7.10
2024-04-13T01:22:32.030Z,9.68
2024-04-13T01:25:38.922Z,5.38
2024-04-13T01:28:45.050Z,8.60
2024-04-13T01:31:52.566Z,6.05
2024-04-13T01:34:58.392Z,10.43
2024-04-13T01:38:04.505Z,7.15
2024-04-13T01:41:11.088Z,6.30
2024-04-13T01:44:16.670Z,11.02
2024-04-13T01:47:22.673Z,9.25
2024-04-13T01:50:28.642Z,8.50
2024-04-13T01:53:34.473Z,10.80
2024-04-13T01:56:40.207Z,8.60
2024-04-13T01:59:45.674Z,10.95
2024-04-13T02:02:51.798Z,9.00
2024-04-13T02:05:57.826Z,6.40
2024-04-13T02:08:44.235Z,8.88
2024-04-13T02:11:31.455Z,6.22
2024-04-13T02:14:17.073Z,6.38
2024-04-13T02:17:03.568Z,10.27
2024-04-13T02:19:50.128Z,6.97
2024-04-13T02:22:36.837Z,6.25
2024-04-13T02:25:22.271Z,8.05
2024-04-13T02:28:08.127Z,7.03
2024-04-13T02:30:53.542Z,6.20
2024-04-13T02:36:26.580Z,8.00
2024-04-13T02:39:14.681Z,8.23
2024-04-13T02:42:00.680Z,9.70
2024-04-13T02:44:48.963Z,16.00
2024-04-13T04:39:41.678Z,7.60
2024-04-13T04:42:30.093Z,9.55
2024-04-13T04:45:16.333Z,8.73
2024-04-13T04:48:04.102Z,12.65
2024-04-13T04:50:57.559Z,6.88
2024-04-13T04:53:44.050Z,8.63
2024-04-13T04:56:30.137Z,14.52
2024-04-13T04:59:15.774Z,10.30
2024-04-13T05:02:02.300Z,11.38
2024-04-13T05:04:48.259Z,10.63
2024-04-13T05:07:34.370Z,6.90
2024-04-13T05:10:20.091Z,6.90
2024-04-13T05:13:06.334Z,6.93
2024-04-13T05:15:52.086Z,8.57
2024-04-13T05:18:38.903Z,11.70
2024-04-13T05:21:24.644Z,11.43
2024-04-13T05:24:11.080Z,14.35
2024-04-13T05:26:57.970Z,15.75
2024-04-13T05:29:43.811Z,13.13
2024-04-13T05:32:29.663Z,14.68
2024-04-13T05:35:19.776Z,13.80
2024-04-13T05:38:05.831Z,25.42
2024-04-13T05:41:12.226Z,16.80
2024-04-13T05:44:18.993Z,23.13
2024-04-13T05:47:25.287Z,11.35
2024-04-13T05:50:31.904Z,11.25
2024-04-13T05:53:37.720Z,16.77
2024-04-13T05:56:43.290Z,14.57
2024-04-13T05:59:49.379Z,20.90
2024-04-13T06:02:55.288Z,18.63
2024-04-13T06:06:04.448Z,18.33
2024-04-13T06:09:10.862Z,21.95
2024-04-13T06:12:16.686Z,8.05
2024-04-13T06:15:22.488Z,9.75
2024-04-13T06:18:28.659Z,19.50
2024-04-13T06:21:34.784Z,7.90
2024-04-13T06:24:40.791Z,12.57
2024-04-13T06:27:46.964Z,13.77
2024-04-13T06:30:53.313Z,9.93
2024-04-13T06:33:59.300Z,13.85
2024-04-13T06:37:05.061Z,13.75
2024-04-13T06:40:10.744Z,8.00
2024-04-13T06:43:16.515Z,17.75
2024-04-13T06:46:22.177Z,15.65
2024-04-13T06:49:28.043Z,15.45
2024-04-13T06:52:33.806Z,10.73
2024-04-13T06:55:39.979Z,14.90
2024-04-13T06:58:45.883Z,15.98
2024-04-13T07:01:51.981Z,18.23
2024-04-13T07:04:57.897Z,22.67
2024-04-13T07:08:03.689Z,21.65
2024-04-13T07:11:09.388Z,9.75
2024-04-13T07:14:15.176Z,11.27
2024-04-13T07:17:25.250Z,10.18
2024-04-13T07:20:31.285Z,4.75
2024-04-13T07:23:36.935Z,8.20
2024-04-13T07:26:42.713Z,11.40
2024-04-13T07:29:39.870Z,3.97
2024-04-13T07:32:46.019Z,7.07
2024-04-13T07:35:51.658Z,4.13
2024-04-13T07:38:57.567Z,8.95
2024-04-13T07:42:03.409Z,4.50
2024-04-13T07:45:10.248Z,21.33
2024-04-13T07:48:15.967Z,5.78
2024-04-13T07:51:22.031Z,5.55
2024-04-13T07:54:27.922Z,5.97
2024-04-13T07:57:34.114Z,9.35
2024-04-13T08:00:40.185Z,12.15
2024-04-13T08:03:46.132Z,6.03
2024-04-13T08:06:51.694Z,6.68
2024-04-13T08:10:01.429Z,8.07
2024-04-13T08:13:07.278Z,4.95
2024-04-13T08:16:13.804Z,4.50
2024-04-13T08:19:19.402Z,6.30
2024-04-13T08:22:26.072Z,7.70
2024-04-13T08:25:31.634Z,6.18
2024-04-13T08:28:37.930Z,8.57
2024-04-13T08:31:44.039Z,6.50
2024-04-13T08:34:49.836Z,5.70
2024-04-13T08:37:55.677Z,5.93
2024-04-13T08:41:06.716Z,2.60
2024-04-13T08:44:14.726Z,7.15
2024-04-13T08:47:22.975Z,4.63
2024-04-13T08:50:29.990Z,4.93
2024-04-13T08:53:17.321Z,8.93
2024-04-13T08:56:24.725Z,6.57
2024-04-13T08:59:32.534Z,6.38
2024-04-13T09:02:43.394Z,4.72
2024-04-13T09:05:49.893Z,6.72
2024-04-13T09:08:58.392Z,4.93
2024-04-13T09:12:04.643Z,4.40
2024-04-13T09:15:10.439Z,6.25
2024-04-13T09:18:18.376Z,4.22
2024-04-13T09:21:24.604Z,13.15
2024-04-13T09:24:30.379Z,6.60
2024-04-13T09:27:38.235Z,6.55
2024-04-13T09:30:44.361Z,6.47
2024-04-13T09:33:49.905Z,8.75
2024-04-13T09:36:56.331Z,35.60
2024-04-13T09:40:02.087Z,5.53
2024-04-13T09:43:11.473Z,5.60
2024-04-13T09:46:21.908Z,7.20
2024-04-13T09:49:29.056Z,5.55
2024-04-13T09:52:36.140Z,9.15
2024-04-13T09:55:42.088Z,6.43
2024-04-13T09:58:48.075Z,6.28
2024-04-13T10:01:54.067Z,6.22
2024-04-13T10:04:59.681Z,4.53
2024-04-13T10:11:22.391Z,4.07
2024-04-13T10:14:09.271Z,6.77
2024-04-13T10:16:57.597Z,4.88
2024-04-13T10:19:46.792Z,8.70
2024-04-13T10:22:38.382Z,7.95
2024-04-13T10:25:29.007Z,3.33
2024-04-13T10:28:22.612Z,6.47
2024-04-13T10:31:18.969Z,8.38
2024-04-13T10:34:05.071Z,7.07
2024-04-13T10:36:58.617Z,12.65
2024-04-13T10:40:03.393Z,3.83
2024-04-13T10:42:51.904Z,5.75
2024-04-13T10:45:39.777Z,4.80
2024-04-13T10:48:31.311Z,4.78
2024-04-13T10:51:17.769Z,8.45
2024-04-13T10:54:03.467Z,12.10
2024-04-13T10:56:54.406Z,4.65
2024-04-13T10:59:45.654Z,3.83
2024-04-13T11:02:32.287Z,5.20
2024-04-13T11:05:21.566Z,10.55
2024-04-13T11:08:09.741Z,3.72
2024-04-13T11:10:57.900Z,3.40
2024-04-13T11:13:45.206Z,9.93
2024-04-13T11:16:31.396Z,8.75
2024-04-13T11:19:21.900Z,4.65
2024-04-13T11:25:49.660Z,2.58
2024-04-13T11:28:55.896Z,8.95
2024-04-13T11:32:02.285Z,8.95
2024-04-13T11:35:08.111Z,5.07
2024-04-13T11:38:19.965Z,4.93
2024-04-13T11:41:06.196Z,6.65
2024-04-13T11:43:55.580Z,7.80
2024-04-13T11:46:41.882Z,4.57
2024-04-13T11:49:31.850Z,7.25
2024-04-13T11:52:19.623Z,8.30
2024-04-13T11:55:05.955Z,5.93
2024-04-13T11:58:11.643Z,4.43
2024-04-13T12:01:17.787Z,11.27
2024-04-13T12:04:24.145Z,11.73
2024-04-13T12:07:33.037Z,2.45
2024-04-13T12:10:39.053Z,4.40
2024-04-13T12:13:45.625Z,7.72
2024-04-13T12:16:51.582Z,5.78
2024-04-13T12:19:57.117Z,4.45
2024-04-13T12:23:43.003Z,4.15
2024-04-13T12:26:55.137Z,8.15
2024-04-13T12:29:41.209Z,5.28
2024-04-13T12:32:47.283Z,19.55
2024-04-13T12:35:53.148Z,15.05
2024-04-13T12:38:59.988Z,12.60
2024-04-13T12:42:05.887Z,15.50
2024-04-13T12:45:11.923Z,3.00
2024-04-13T12:48:17.978Z,5.63
2024-04-13T12:51:24.374Z,8.02
2024-04-13T12:54:29.921Z,6.13
2024-04-13T12:57:16.624Z,5.72
2024-04-13T13:00:05.271Z,2.75
2024-04-13T13:02:51.319Z,9.57
2024-04-13T13:05:37.317Z,5.90
2024-04-13T13:08:23.124Z,6.35
2024-04-13T13:11:08.798Z,6.38
2024-04-13T13:13:55.196Z,7.40
2024-04-13T13:16:40.927Z,4.10
2024-04-13T13:19:27.057Z,11.63
2024-04-13T13:22:13.696Z,6.80
2024-04-13T13:25:00.364Z,6.72
2024-04-13T13:27:46.399Z,4.05
2024-04-13T13:30:36.949Z,10.68
2024-04-13T13:33:22.898Z,11.82
2024-04-13T13:36:08.987Z,7.65
2024-04-13T13:39:14.493Z,6.47
2024-04-13T13:42:20.705Z,7.03
2024-04-13T13:45:06.581Z,4.90
2024-04-13T13:47:52.766Z,5.60
2024-04-13T13:50:38.797Z,4.10
2024-04-13T13:53:25.022Z,2.42
2024-04-13T13:56:10.904Z,8.50
2024-04-13T13:59:17.226Z,3.70
2024-04-13T14:02:23.306Z,14.45
2024-04-13T14:05:29.615Z,3.70
2024-04-13T14:08:15.158Z,6.95
2024-04-13T14:11:01.504Z,9.63
2024-04-13T14:13:48.218Z,8.65
2024-04-13T14:16:34.313Z,7.25
2024-04-13T14:19:20.050Z,9.88
2024-04-13T14:22:06.215Z,4.45
2024-04-13T14:24:52.037Z,8.05
2024-04-13T14:27:38.218Z,9.95
2024-04-13T14:30:24.029Z,7.47
2024-04-13T14:33:10.449Z,9.23
2024-04-13T14:36:00.196Z,5.93
2024-04-13T14:38:46.786Z,2.65
2024-04-13T14:41:32.779Z,5.18
2024-04-13T14:44:20.500Z,9.80
2024-04-13T14:47:08.931Z,4.90
2024-04-13T14:49:56.910Z,3.90
2024-04-13T14:53:02.892Z,4.18
2024-04-13T14:56:09.143Z,2.58
2024-04-13T14:58:57.137Z,11.20
2024-04-13T15:01:43.855Z,12.75
2024-04-13T15:04:34.227Z,8.68
2024-04-13T15:07:23.402Z,11.05
2024-04-13T15:10:09.133Z,6.43
2024-04-13T15:12:55.174Z,2.10
2024-04-13T15:15:49.868Z,6.35
2024-04-13T15:18:35.932Z,2.88
2024-04-13T15:21:22.050Z,5.25
2024-04-13T15:24:10.233Z,1.90
2024-04-13T15:26:57.686Z,3.42
2024-04-13T15:29:43.891Z,3.92
2024-04-13T15:32:29.922Z,6.40
2024-04-13T15:35:16.009Z,2.78
2024-04-13T15:38:02.896Z,4.32
2024-04-13T15:40:49.609Z,3.80
2024-04-13T15:43:35.574Z,5.75
2024-04-13T15:46:41.731Z,4.28
2024-04-13T15:49:46.874Z,6.78
2024-04-13T15:52:33.157Z,8.25
2024-04-13T15:55:18.821Z,6.22
2024-04-13T15:58:05.145Z,9.10
2024-04-13T16:01:11.337Z,8.30
2024-04-13T16:04:17.496Z,4.82
2024-04-13T16:07:24.456Z,2.45
2024-04-13T16:10:30.223Z,10.88
2024-04-13T16:13:36.942Z,5.97
2024-04-13T16:16:43.113Z,4.75
2024-04-13T16:19:48.708Z,4.93
2024-04-13T16:22:54.642Z,7.35
2024-04-13T16:26:01.423Z,6.60
2024-04-13T16:29:07.700Z,9.68
2024-04-13T16:32:14.986Z,12.60
2024-04-13T16:35:21.246Z,7.97
2024-04-13T16:38:26.911Z,6.50
2024-04-13T16:41:33.374Z,4.20
2024-04-13T16:44:39.068Z,5.00
2024-04-13T16:47:45.277Z,5.70
2024-04-13T16:50:51.138Z,4.07
2024-04-13T16:53:37.455Z,6.18
2024-04-13T16:56:43.559Z,5.82
2024-04-13T16:59:49.724Z,7.32
2024-04-13T17:02:56.727Z,10.00
2024-04-13T17:05:43.662Z,15.63
2024-04-13T17:08:29.962Z,14.82
2024-04-13T17:11:16.024Z,13.52
2024-04-13T17:14:01.674Z,22.92
2024-04-13T17:16:47.679Z,13.10
2024-04-13T17:19:34.538Z,13.85
2024-04-13T17:22:24.008Z,8.90
2024-04-13T17:25:29.578Z,5.18
2024-04-13T17:28:35.720Z,5.35
2024-04-13T17:31:41.538Z,6.57
2024-04-13T17:34:43.347Z,5.43
2024-04-13T17:40:55.899Z,7.75
2024-04-13T17:44:01.608Z,8.45
2024-04-13T17:47:07.774Z,6.07
2024-04-13T17:50:16.070Z,9.60
2024-04-13T17:53:22.158Z,7.93
2024-04-13T17:56:28.052Z,6.20
2024-04-13T17:59:33.970Z,9.02
2024-04-13T18:02:39.836Z,10.30
2024-04-13T18:05:27.660Z,19.80
2024-04-13T18:08:13.456Z,10.43
2024-04-13T18:10:59.965Z,24.23
2024-04-13T18:13:46.111Z,29.25
2024-04-13T18:16:51.815Z,29.77
2024-04-13T18:19:58.328Z,57.15
2024-04-13T18:23:04.423Z,53.45
2024-04-13T18:26:11.227Z,46.78
2024-04-13T18:29:17.257Z,56.78
2024-04-13T18:32:02.982Z,31.52
2024-04-13T18:35:09.160Z,46.10
2024-04-13T18:38:14.927Z,36.67
2024-04-13T18:41:21.158Z,32.70
2024-04-13T18:44:27.350Z,19.30
2024-04-13T18:47:35.332Z,17.13
2024-04-13T18:50:41.429Z,11.82
2024-04-13T18:53:29.514Z,12.15
2024-04-13T18:56:37.099Z,13.32
2024-04-13T18:59:44.421Z,13.30
2024-04-13T19:02:50.390Z,15.68
2024-04-13T19:05:57.291Z,16.00
2024-04-13T19:09:03.432Z,12.05
2024-04-13T19:11:58.297Z,20.95
2024-04-13T19:15:04.701Z,20.48
2024-04-13T19:18:11.934Z,28.80
2024-04-13T19:21:19.503Z,11.23
2024-04-13T19:24:28.832Z,12.10
2024-04-13T19:27:35.720Z,13.48
2024-04-13T19:30:23.573Z,16.50
2024-04-13T19:33:30.310Z,14.60
2024-04-13T19:36:36.449Z,13.60
2024-04-13T19:39:42.860Z,11.98
2024-04-13T19:42:49.598Z,16.30
2024-04-13T19:45:55.681Z,19.95
2024-04-13T19:49:01.651Z,23.10
2024-04-13T19:52:08.192Z,19.30
2024-04-13T19:55:14.760Z,28.08
2024-04-13T19:58:20.837Z,33.75
2024-04-13T20:01:30.390Z,41.58
2024-04-13T20:04:36.492Z,27.25
2024-04-13T20:07:42.841Z,29.05
2024-04-13T20:10:48.757Z,30.45
2024-04-13T20:13:55.393Z,30.63
2024-04-13T20:16:59.681Z,40.53
2024-04-13T20:20:05.886Z,51.25
2024-04-13T20:23:12.085Z,69.90
2024-04-13T20:26:18.384Z,82.43
2024-04-13T20:29:24.388Z,63.80
2024-04-13T20:32:30.594Z,52.40
2024-04-13T20:35:36.250Z,49.20
2024-04-13T20:38:42.923Z,49.45
2024-04-13T20:41:48.779Z,38.40
2024-04-13T20:44:54.875Z,35.72
2024-04-13T20:48:01.148Z,35.97
2024-04-13T20:51:07.797Z,44.20
2024-04-13T20:54:14.074Z,40.88
2024-04-13T20:57:23.091Z,42.30
2024-04-13T21:00:29.304Z,33.78
2024-04-13T21:03:36.441Z,36.10
2024-04-13T21:06:42.111Z,26.08
2024-04-13T21:09:48.271Z,23.23
2024-04-13T21:12:55.014Z,23.92
2024-04-13T21:16:01.305Z,28.83
2024-04-13T21:19:08.360Z,16.20
2024-04-13T21:22:14.178Z,26.45
2024-04-13T21:25:19.783Z,33.17
2024-04-13T21:28:26.472Z,34.30
2024-04-13T21:31:32.634Z,34.20
2024-04-13T21:34:38.354Z,30.25
2024-04-13T21:37:44.311Z,32.05
2024-04-13T21:40:50.279Z,26.20
2024-04-13T21:43:55.983Z,27.63
2024-04-13T21:47:02.653Z,22.40
2024-04-13T21:50:08.366Z,25.08
2024-04-13T21:53:14.591Z,28.55
2024-04-13T21:56:20.364Z,29.13
2024-04-13T21:59:26.116Z,23.50
2024-04-13T22:02:31.520Z,32.85
2024-04-13T22:05:38.035Z,38.30
2024-04-13T22:08:51.192Z,22.67
2024-04-13T22:12:01.708Z,27.45
2024-04-13T22:15:10.775Z,34.05
2024-04-13T22:18:17.229Z,30.73
2024-04-13T22:21:22.768Z,35.20
2024-04-13T22:24:29.145Z,20.85
2024-04-13T22:27:35.229Z,23.33
2024-04-13T22:30:41.241Z,20.25
2024-04-13T22:33:48.089Z,21.05
2024-04-13T22:36:53.917Z,22.70
2024-04-13T22:39:59.402Z,20.85
2024-04-13T22:43:05.649Z,16.42
2024-04-13T22:45:51.363Z,14.35
2024-04-13T22:48:37.458Z,19.80
2024-04-13T22:51:23.474Z,26.90
2024-04-13T22:54:09.690Z,21.10
2024-04-13T22:56:56.309Z,24.25
2024-04-13T22:59:43.313Z,21.17
2024-04-13T23:02:29.231Z,21.30
2024-04-13T23:05:17.467Z,17.33
2024-04-13T23:08:04.349Z,14.80
2024-04-13T23:10:50.579Z,21.88
2024-04-13T23:13:36.242Z,11.82
2024-04-13T23:16:22.532Z,13.05
2024-04-13T23:19:08.275Z,13.70
2024-04-13T23:21:54.755Z,16.05
2024-04-13T23:24:40.656Z,10.60
2024-04-13T23:27:28.712Z,13.88
2024-04-13T23:30:14.578Z,16.55
2024-04-13T23:33:01.887Z,15.20
2024-04-13T23:36:00.836Z,15.05
2024-04-13T23:38:46.959Z,12.75
2024-04-13T23:41:32.702Z,14.95
2024-04-13T23:44:20.182Z,11.43
2024-04-13T23:47:05.804Z,12.88
2024-04-13T23:49:52.940Z,15.90
2024-04-13T23:52:38.775Z,12.10
2024-04-13T23:55:25.441Z,14.57
2024-04-13T23:58:11.440Z,14.02
